sensor_id;sensor_type;location;lat;lon;timestamp;P1;durP1;ratioP1;P2;durP2;ratioP2
49460;SDS011;35355;49.198;-0.368;2023-10-13T00:00:22;11.98;;;3.55;;
49460;SDS011;35355;49.198;-0.368;2023-10-13T00:02:55;14.60;;;3.70;;
49460;SDS011;35355;49.198;-0.368;2023-10-13T00:05:25;17.75;;;3.70;;
49460;SDS011;35355;49.198;-0.368;2023-10-13T00:07:52;12.65;;;3.83;;
49460;SDS011;35355;49.198;-0.368;2023-10-13T00:10:17;14.52;;;3.33;;
49460;SDS011;35355;49.198;-0.368;2023-10-13T00:12:44;14.02;;;3.55;;
49460;SDS011;35355;49.198;-0.368;2023-10-13T00:15:16;12.65;;;4.32;;
49460;SDS011;35355;49.198;-0.368;2023-10-13T00:17:42;16.80;;;3.60;;
49460;SDS011;35355;49.198;-0.368;2023-10-13T00:20:08;14.93;;;3.65;;
49460;SDS011;35355;49.198;-0.368;2023-10-13T00:22:53;16.10;;;2.83;;
49460;SDS011;35355;49.198;-0.368;2023-10-13T00:25:21;15.13;;;4.00;;
49460;SDS011;35355;49.198;-0.368;2023-10-13T00:27:52;14.05;;;3.65;;
49460;SDS011;35355;49.198;-0.368;2023-10-13T00:30:17;19.35;;;3.67;;
49460;SDS011;35355;49.198;-0.368;2023-10-13T00:32:47;19.00;;;3.63;;
49460;SDS011;35355;49.198;-0.368;2023-10-13T00:35:21;14.85;;;3.50;;
49460;SDS011;35355;49.198;-0.368;2023-10-13T00:37:51;11.50;;;3.25;;
49460;SDS011;35355;49.198;-0.368;2023-10-13T00:40:21;16.40;;;3.53;;
49460;SDS011;35355;49.198;-0.368;2023-10-13T00:42:56;11.07;;;3.00;;
49460;SDS011;35355;49.198;-0.368;2023-10-13T00:45:47;15.13;;;4.50;;
49460;SDS011;35355;49.198;-0.368;2023-10-13T00:48:27;12.02;;;3.25;;
49460;SDS011;35355;49.198;-0.368;2023-10-13T00:50:57;9.90;;;3.35;;
49460;SDS011;35355;49.198;-0.368;2023-10-13T00:53:28;16.42;;;3.40;;
49460;SDS011;35355;49.198;-0.368;2023-10-13T00:56:01;18.35;;;3.97;;
49460;SDS011;35355;49.198;-0.368;2023-10-13T00:58:35;13.45;;;3.15;;
49460;SDS011;35355;49.198;-0.368;2023-10-13T01:01:04;10.55;;;4.03;;
49460;SDS011;35355;49.198;-0.368;2023-10-13T01:03:44;9.75;;;3.08;;
49460;SDS011;35355;49.198;-0.368;2023-10-13T01:06:17;10.65;;;3.63;;
49460;SDS011;35355;49.198;-0.368;2023-10-13T01:08:46;14.35;;;2.95;;
49460;SDS011;35355;49.198;-0.368;2023-10-13T01:11:18;11.02;;;3.00;;
49460;SDS011;35355;49.198;-0.368;2023-10-13T01:13:45;9.23;;;3.50;;
49460;SDS011;35355;49.198;-0.368;2023-10-13T01:16:16;11.95;;;3.03;;
49460;SDS011;35355;49.198;-0.368;2023-10-13T01:18:49;12.13;;;3.55;;
49460;SDS011;35355;49.198;-0.368;2023-10-13T01:21:23;16.83;;;3.67;;
49460;SDS011;35355;49.198;-0.368;2023-10-13T01:23:52;19.80;;;3.35;;
49460;SDS011;35355;49.198;-0.368;2023-10-13T01:26:21;14.20;;;3.50;;
49460;SDS011;35355;49.198;-0.368;2023-10-13T01:29:01;11.13;;;3.53;;
49460;SDS011;35355;49.198;-0.368;2023-10-13T01:31:26;13.18;;;3.15;;
49460;SDS011;35355;49.198;-0.368;2023-10-13T01:33:56;18.02;;;4.00;;
49460;SDS011;35355;49.198;-0.368;2023-10-13T01:36:28;17.40;;;2.70;;
49460;SDS011;35355;49.198;-0.368;2023-10-13T01:39:00;14.57;;;3.75;;
49460;SDS011;35355;49.198;-0.368;2023-10-13T01:41:26;5.55;;;2.53;;
49460;SDS011;35355;49.198;-0.368;2023-10-13T01:43:52;20.48;;;2.70;;
49460;SDS011;35355;49.198;-0.368;2023-10-13T01:46:17;9.35;;;3.10;;
49460;SDS011;35355;49.198;-0.368;2023-10-13T01:48:46;11.07;;;3.60;;
49460;SDS011;35355;49.198;-0.368;2023-10-13T01:51:12;12.50;;;3.60;;
49460;SDS011;35355;49.198;-0.368;2023-10-13T01:53:38;14.13;;;3.17;;
49460;SDS011;35355;49.198;-0.368;2023-10-13T01:56:07;9.45;;;2.95;;
49460;SDS011;35355;49.198;-0.368;2023-10-13T01:58:39;13.55;;;3.97;;
49460;SDS011;35355;49.198;-0.368;2023-10-13T02:01:11;12.45;;;2.95;;
49460;SDS011;35355;49.198;-0.368;2023-10-13T02:03:38;16.40;;;3.90;;
49460;SDS011;35355;49.198;-0.368;2023-10-13T02:06:11;16.98;;;3.22;;
49460;SDS011;35355;49.198;-0.368;2023-10-13T02:08:42;10.52;;;2.35;;
49460;SDS011;35355;49.198;-0.368;2023-10-13T02:11:09;8.27;;;3.70;;
49460;SDS011;35355;49.198;-0.368;2023-10-13T02:13:34;9.27;;;2.22;;
49460;SDS011;35355;49.198;-0.368;2023-10-13T02:16:06;11.18;;;3.10;;
49460;SDS011;35355;49.198;-0.368;2023-10-13T02:18:32;7.43;;;2.92;;
49460;SDS011;35355;49.198;-0.368;2023-10-13T02:21:08;12.73;;;3.00;;
49460;SDS011;35355;49.198;-0.368;2023-10-13T02:23:40;7.85;;;2.80;;
49460;SDS011;35355;49.198;-0.368;2023-10-13T02:26:10;10.10;;;2.78;;
49460;SDS011;35355;49.198;-0.368;2023-10-13T02:28:39;21.40;;;3.42;;
49460;SDS011;35355;49.198;-0.368;2023-10-13T02:31:05;12.27;;;2.72;;
49460;SDS011;35355;49.198;-0.368;2023-10-13T02:33:32;11.35;;;2.42;;
49460;SDS011;35355;49.198;-0.368;2023-10-13T02:36:02;8.00;;;2.95;;
49460;SDS011;35355;49.198;-0.368;2023-10-13T02:38:29;14.80;;;2.90;;
49460;SDS011;35355;49.198;-0.368;2023-10-13T02:41:01;7.47;;;2.85;;
49460;SDS011;35355;49.198;-0.368;2023-10-13T02:43:31;7.97;;;2.45;;
49460;SDS011;35355;49.198;-0.368;2023-10-13T02:46:00;11.80;;;2.50;;
49460;SDS011;35355;49.198;-0.368;2023-10-13T02:48:27;13.27;;;3.35;;
49460;SDS011;35355;49.198;-0.368;2023-10-13T02:51:03;11.93;;;2.30;;
49460;SDS011;35355;49.198;-0.368;2023-10-13T02:53:33;11.57;;;3.20;;
49460;SDS011;35355;49.198;-0.368;2023-10-13T02:56:00;9.85;;;3.55;;
49460;SDS011;35355;49.198;-0.368;2023-10-13T02:58:31;11.32;;;2.95;;
49460;SDS011;35355;49.198;-0.368;2023-10-13T03:01:06;10.25;;;2.65;;
49460;SDS011;35355;49.198;-0.368;2023-10-13T03:03:45;7.53;;;2.85;;
49460;SDS011;35355;49.198;-0.368;2023-10-13T03:06:16;8.85;;;3.03;;
49460;SDS011;35355;49.198;-0.368;2023-10-13T03:08:44;16.00;;;4.07;;
49460;SDS011;35355;49.198;-0.368;2023-10-13T03:11:10;8.73;;;2.25;;
49460;SDS011;35355;49.198;-0.368;2023-10-13T03:13:36;13.48;;;3.33;;
49460;SDS011;35355;49.198;-0.368;2023-10-13T03:16:10;17.80;;;3.70;;
49460;SDS011;35355;49.198;-0.368;2023-10-13T03:18:40;13.10;;;3.00;;
49460;SDS011;35355;49.198;-0.368;2023-10-13T03:21:06;9.73;;;2.25;;
49460;SDS011;35355;49.198;-0.368;2023-10-13T03:23:34;7.65;;;2.45;;
49460;SDS011;35355;49.198;-0.368;2023-10-13T03:26:10;15.38;;;3.13;;
49460;SDS011;35355;49.198;-0.368;2023-10-13T03:28:36;20.83;;;3.40;;
49460;SDS011;35355;49.198;-0.368;2023-10-13T03:31:03;12.25;;;2.63;;
49460;SDS011;35355;49.198;-0.368;2023-10-13T03:33:29;8.00;;;2.22;;
49460;SDS011;35355;49.198;-0.368;2023-10-13T03:35:57;11.10;;;2.33;;
49460;SDS011;35355;49.198;-0.368;2023-10-13T03:38:31;12.85;;;2.63;;
49460;SDS011;35355;49.198;-0.368;2023-10-13T03:41:01;9.57;;;3.13;;
49460;SDS011;35355;49.198;-0.368;2023-10-13T03:43:37;13.88;;;2.88;;
49460;SDS011;35355;49.198;-0.368;2023-10-13T03:46:17;10.57;;;3.20;;
49460;SDS011;35355;49.198;-0.368;2023-10-13T03:48:47;10.70;;;2.90;;
49460;SDS011;35355;49.198;-0.368;2023-10-13T03:51:26;11.75;;;3.50;;
49460;SDS011;35355;49.198;-0.368;2023-10-13T03:53:56;14.98;;;2.75;;
49460;SDS011;35355;49.198;-0.368;2023-10-13T03:56:25;14.85;;;2.70;;
49460;SDS011;35355;49.198;-0.368;2023-10-13T03:58:56;10.50;;;3.03;;
49460;SDS011;35355;49.198;-0.368;2023-10-13T04:01:24;8.75;;;2.33;;
49460;SDS011;35355;49.198;-0.368;2023-10-13T04:04:31;12.25;;;3.08;;
49460;SDS011;35355;49.198;-0.368;2023-10-13T04:07:02;12.20;;;3.38;;
49460;SDS011;35355;49.198;-0.368;2023-10-13T04:09:35;8.90;;;3.47;;
49460;SDS011;35355;49.198;-0.368;2023-10-13T04:12:03;11.65;;;2.63;;
49460;SDS011;35355;49.198;-0.368;2023-10-13T04:14:30;10.77;;;2.80;;
49460;SDS011;35355;49.198;-0.368;2023-10-13T04:17:19;6.78;;;2.70;;
49460;SDS011;35355;49.198;-0.368;2023-10-13T04:19:48;11.27;;;4.05;;
49460;SDS011;35355;49.198;-0.368;2023-10-13T04:22:33;9.43;;;2.72;;
49460;SDS011;35355;49.198;-0.368;2023-10-13T04:28:00;12.98;;;3.35;;
49460;SDS011;35355;49.198;-0.368;2023-10-13T04:30:42;10.13;;;2.83;;
49460;SDS011;35355;49.198;-0.368;2023-10-13T04:33:30;9.18;;;2.70;;
49460;SDS011;35355;49.198;-0.368;2023-10-13T04:36:18;12.90;;;3.17;;
49460;SDS011;35355;49.198;-0.368;2023-10-13T04:38:53;12.35;;;3.20;;
49460;SDS011;35355;49.198;-0.368;2023-10-13T04:41:37;12.70;;;2.92;;
49460;SDS011;35355;49.198;-0.368;2023-10-13T04:44:11;17.50;;;3.17;;
49460;SDS011;35355;49.198;-0.368;2023-10-13T04:46:56;11.27;;;3.05;;
49460;SDS011;35355;49.198;-0.368;2023-10-13T04:49:25;10.02;;;2.85;;
49460;SDS011;35355;49.198;-0.368;2023-10-13T04:52:14;17.05;;;3.75;;
49460;SDS011;35355;49.198;-0.368;2023-10-13T04:55:00;9.93;;;2.92;;
49460;SDS011;35355;49.198;-0.368;2023-10-13T04:57:41;13.00;;;4.20;;
49460;SDS011;35355;49.198;-0.368;2023-10-13T05:00:15;13.38;;;3.22;;
49460;SDS011;35355;49.198;-0.368;2023-10-13T05:02:46;10.38;;;3.65;;
49460;SDS011;35355;49.198;-0.368;2023-10-13T05:05:24;13.88;;;3.88;;
49460;SDS011;35355;49.198;-0.368;2023-10-13T05:07:50;12.35;;;3.47;;
49460;SDS011;35355;49.198;-0.368;2023-10-13T05:10:35;14.55;;;3.45;;
49460;SDS011;35355;49.198;-0.368;2023-10-13T05:13:19;14.43;;;3.08;;
49460;SDS011;35355;49.198;-0.368;2023-10-13T05:16:06;13.52;;;3.20;;
49460;SDS011;35355;49.198;-0.368;2023-10-13T05:18:50;11.38;;;3.17;;
49460;SDS011;35355;49.198;-0.368;2023-10-13T05:21:34;14.02;;;2.97;;
49460;SDS011;35355;49.198;-0.368;2023-10-13T05:24:18;14.75;;;3.45;;
49460;SDS011;35355;49.198;-0.368;2023-10-13T05:27:02;11.82;;;3.28;;
49460;SDS011;35355;49.198;-0.368;2023-10-13T05:29:49;9.27;;;3.28;;
49460;SDS011;35355;49.198;-0.368;2023-10-13T05:32:33;9.05;;;3.70;;
49460;SDS011;35355;49.198;-0.368;2023-10-13T05:35:20;13.25;;;3.03;;
49460;SDS011;35355;49.198;-0.368;2023-10-13T05:38:05;17.67;;;4.72;;
49460;SDS011;35355;49.198;-0.368;2023-10-13T05:40:53;10.88;;;3.45;;
49460;SDS011;35355;49.198;-0.368;2023-10-13T05:43:37;16.15;;;3.28;;
49460;SDS011;35355;49.198;-0.368;2023-10-13T05:46:21;13.82;;;3.83;;
49460;SDS011;35355;49.198;-0.368;2023-10-13T05:48:53;14.40;;;4.30;;
49460;SDS011;35355;49.198;-0.368;2023-10-13T05:51:25;14.02;;;4.18;;
49460;SDS011;35355;49.198;-0.368;2023-10-13T05:54:08;15.68;;;4.07;;
49460;SDS011;35355;49.198;-0.368;2023-10-13T05:56:45;19.35;;;3.60;;
49460;SDS011;35355;49.198;-0.368;2023-10-13T05:59:31;12.18;;;3.50;;
49460;SDS011;35355;49.198;-0.368;2023-10-13T06:02:20;18.63;;;4.47;;
49460;SDS011;35355;49.198;-0.368;2023-10-13T06:05:05;11.00;;;4.03;;
49460;SDS011;35355;49.198;-0.368;2023-10-13T06:07:50;19.88;;;4.13;;
49460;SDS011;35355;49.198;-0.368;2023-10-13T06:10:36;12.07;;;4.15;;
49460;SDS011;35355;49.198;-0.368;2023-10-13T06:13:20;12.85;;;3.58;;
49460;SDS011;35355;49.198;-0.368;2023-10-13T06:16:14;16.02;;;5.65;;
49460;SDS011;35355;49.198;-0.368;2023-10-13T06:19:00;15.10;;;4.32;;
49460;SDS011;35355;49.198;-0.368;2023-10-13T06:21:45;13.35;;;3.75;;
49460;SDS011;35355;49.198;-0.368;2023-10-13T06:24:29;14.77;;;4.28;;
49460;SDS011;35355;49.198;-0.368;2023-10-13T06:27:14;21.25;;;4.30;;
49460;SDS011;35355;49.198;-0.368;2023-10-13T06:29:59;19.15;;;3.83;;
49460;SDS011;35355;49.198;-0.368;2023-10-13T06:32:27;14.32;;;4.05;;
49460;SDS011;35355;49.198;-0.368;2023-10-13T06:34:53;11.38;;;4.28;;
49460;SDS011;35355;49.198;-0.368;2023-10-13T06:37:38;10.65;;;3.35;;
49460;SDS011;35355;49.198;-0.368;2023-10-13T06:40:10;18.67;;;4.53;;
49460;SDS011;35355;49.198;-0.368;2023-10-13T06:42:55;14.30;;;4.18;;
49460;SDS011;35355;49.198;-0.368;2023-10-13T06:45:36;17.15;;;4.63;;
49460;SDS011;35355;49.198;-0.368;2023-10-13T06:48:03;16.40;;;4.05;;
49460;SDS011;35355;49.198;-0.368;2023-10-13T06:50:30;11.00;;;3.40;;
49460;SDS011;35355;49.198;-0.368;2023-10-13T06:53:04;11.82;;;3.92;;
49460;SDS011;35355;49.198;-0.368;2023-10-13T06:55:32;19.73;;;4.30;;
49460;SDS011;35355;49.198;-0.368;2023-10-13T06:58:04;20.27;;;4.45;;
49460;SDS011;35355;49.198;-0.368;2023-10-13T07:00:32;17.98;;;4.40;;
49460;SDS011;35355;49.198;-0.368;2023-10-13T07:03:06;19.10;;;3.53;;
49460;SDS011;35355;49.198;-0.368;2023-10-13T07:05:37;14.77;;;4.28;;
49460;SDS011;35355;49.198;-0.368;2023-10-13T07:08:04;19.45;;;4.32;;
49460;SDS011;35355;49.198;-0.368;2023-10-13T07:10:31;18.08;;;4.05;;
49460;SDS011;35355;49.198;-0.368;2023-10-13T07:13:10;19.77;;;3.88;;
49460;SDS011;35355;49.198;-0.368;2023-10-13T07:15:38;17.25;;;4.00;;
49460;SDS011;35355;49.198;-0.368;2023-10-13T07:18:13;14.00;;;4.30;;
49460;SDS011;35355;49.198;-0.368;2023-10-13T07:20:48;23.85;;;4.78;;
49460;SDS011;35355;49.198;-0.368;2023-10-13T07:23:14;10.60;;;4.78;;
49460;SDS011;35355;49.198;-0.368;2023-10-13T07:25:53;14.82;;;4.55;;
49460;SDS011;35355;49.198;-0.368;2023-10-13T07:28:28;14.68;;;4.13;;
49460;SDS011;35355;49.198;-0.368;2023-10-13T07:30:56;17.52;;;3.92;;
49460;SDS011;35355;49.198;-0.368;2023-10-13T07:33:24;22.60;;;5.22;;
49460;SDS011;35355;49.198;-0.368;2023-10-13T07:35:59;13.50;;;3.85;;
49460;SDS011;35355;49.198;-0.368;2023-10-13T07:38:35;19.48;;;5.72;;
49460;SDS011;35355;49.198;-0.368;2023-10-13T07:41:05;14.10;;;4.03;;
49460;SDS011;35355;49.198;-0.368;2023-10-13T07:43:33;16.02;;;4.05;;
49460;SDS011;35355;49.198;-0.368;2023-10-13T07:45:59;14.27;;;3.42;;
49460;SDS011;35355;49.198;-0.368;2023-10-13T07:48:31;11.65;;;3.38;;
49460;SDS011;35355;49.198;-0.368;2023-10-13T07:51:02;18.52;;;4.72;;
49460;SDS011;35355;49.198;-0.368;2023-10-13T07:53:42;17.77;;;4.00;;
49460;SDS011;35355;49.198;-0.368;2023-10-13T07:56:11;18.05;;;4.90;;
49460;SDS011;35355;49.198;-0.368;2023-10-13T07:58:37;13.05;;;4.30;;
49460;SDS011;35355;49.198;-0.368;2023-10-13T08:01:24;9.57;;;3.60;;
49460;SDS011;35355;49.198;-0.368;2023-10-13T08:03:52;15.88;;;4.07;;
49460;SDS011;35355;49.198;-0.368;2023-10-13T08:06:30;13.25;;;3.70;;
49460;SDS011;35355;49.198;-0.368;2023-10-13T08:08:55;20.73;;;3.97;;
49460;SDS011;35355;49.198;-0.368;2023-10-13T08:11:34;13.48;;;3.72;;
49460;SDS011;35355;49.198;-0.368;2023-10-13T08:14:06;16.15;;;4.70;;
49460;SDS011;35355;49.198;-0.368;2023-10-13T08:16:43;11.25;;;5.10;;
49460;SDS011;35355;49.198;-0.368;2023-10-13T08:19:28;16.33;;;4.07;;
49460;SDS011;35355;49.198;-0.368;2023-10-13T08:22:15;13.95;;;3.13;;
49460;SDS011;35355;49.198;-0.368;2023-10-13T08:24:44;12.35;;;3.55;;
49460;SDS011;35355;49.198;-0.368;2023-10-13T08:27:10;14.70;;;3.95;;
49460;SDS011;35355;49.198;-0.368;2023-10-13T08:29:54;14.30;;;3.95;;
49460;SDS011;35355;49.198;-0.368;2023-10-13T08:32:21;17.17;;;3.70;;
49460;SDS011;35355;49.198;-0.368;2023-10-13T08:34:57;13.57;;;3.95;;
49460;SDS011;35355;49.198;-0.368;2023-10-13T08:37:29;12.43;;;4.05;;
49460;SDS011;35355;49.198;-0.368;2023-10-13T08:39:58;15.35;;;3.38;;
49460;SDS011;35355;49.198;-0.368;2023-10-13T08:42:31;11.32;;;3.67;;
49460;SDS011;35355;49.198;-0.368;2023-10-13T08:45:12;11.77;;;3.75;;
49460;SDS011;35355;49.198;-0.368;2023-10-13T08:48:02;15.93;;;4.13;;
49460;SDS011;35355;49.198;-0.368;2023-10-13T08:50:35;14.50;;;4.43;;
49460;SDS011;35355;49.198;-0.368;2023-10-13T08:53:34;17.90;;;4.32;;
49460;SDS011;35355;49.198;-0.368;2023-10-13T08:56:10;16.70;;;4.50;;
49460;SDS011;35355;49.198;-0.368;2023-10-13T08:58:57;12.20;;;4.47;;
49460;SDS011;35355;49.198;-0.368;2023-10-13T09:01:29;17.52;;;4.32;;
49460;SDS011;35355;49.198;-0.368;2023-10-13T09:04:25;15.77;;;4.57;;
49460;SDS011;35355;49.198;-0.368;2023-10-13T09:06:58;16.60;;;4.18;;
49460;SDS011;35355;49.198;-0.368;2023-10-13T09:09:30;39.85;;;8.23;;
49460;SDS011;35355;49.198;-0.368;2023-10-13T09:12:00;21.88;;;6.07;;
49460;SDS011;35355;49.198;-0.368;2023-10-13T09:14:34;23.85;;;6.13;;
49460;SDS011;35355;49.198;-0.368;2023-10-13T09:17:14;11.88;;;5.18;;
49460;SDS011;35355;49.198;-0.368;2023-10-13T09:19:58;16.35;;;4.68;;
49460;SDS011;35355;49.198;-0.368;2023-10-13T09:22:45;20.08;;;5.13;;
49460;SDS011;35355;49.198;-0.368;2023-10-13T09:25:26;18.90;;;4.18;;
49460;SDS011;35355;49.198;-0.368;2023-10-13T09:28:29;16.63;;;5.45;;
49460;SDS011;35355;49.198;-0.368;2023-10-13T09:30:57;19.15;;;6.47;;
49460;SDS011;35355;49.198;-0.368;2023-10-13T09:33:24;15.50;;;5.30;;
49460;SDS011;35355;49.198;-0.368;2023-10-13T09:35:58;19.95;;;4.50;;
49460;SDS011;35355;49.198;-0.368;2023-10-13T09:38:27;19.95;;;5.10;;
49460;SDS011;35355;49.198;-0.368;2023-10-13T09:40:54;13.85;;;4.22;;
49460;SDS011;35355;49.198;-0.368;2023-10-13T09:43:25;23.15;;;5.25;;
49460;SDS011;35355;49.198;-0.368;2023-10-13T09:45:57;18.42;;;4.28;;
49460;SDS011;35355;49.198;-0.368;2023-10-13T09:48:36;18.48;;;3.47;;
49460;SDS011;35355;49.198;-0.368;2023-10-13T09:51:09;15.57;;;4.03;;
49460;SDS011;35355;49.198;-0.368;2023-10-13T09:53:38;16.08;;;3.88;;
49460;SDS011;35355;49.198;-0.368;2023-10-13T09:56:31;10.82;;;3.72;;
49460;SDS011;35355;49.198;-0.368;2023-10-13T09:59:08;17.48;;;3.33;;
49460;SDS011;35355;49.198;-0.368;2023-10-13T10:01:43;15.15;;;5.20;;
49460;SDS011;35355;49.198;-0.368;2023-10-13T10:04:16;16.63;;;3.83;;
49460;SDS011;35355;49.198;-0.368;2023-10-13T10:06:52;14.73;;;3.85;;
49460;SDS011;35355;49.198;-0.368;2023-10-13T10:09:28;16.73;;;3.42;;
49460;SDS011;35355;49.198;-0.368;2023-10-13T10:17:39;12.43;;;3.22;;
49460;SDS011;35355;49.198;-0.368;2023-10-13T10:20:07;19.35;;;3.45;;
49460;SDS011;35355;49.198;-0.368;2023-10-13T10:22:57;13.57;;;3.55;;
49460;SDS011;35355;49.198;-0.368;2023-10-13T10:25:30;13.70;;;3.10;;
49460;SDS011;35355;49.198;-0.368;2023-10-13T10:28:06;18.70;;;4.25;;
49460;SDS011;35355;49.198;-0.368;2023-10-13T10:30:35;14.88;;;3.53;;
49460;SDS011;35355;49.198;-0.368;2023-10-13T10:33:04;17.33;;;3.47;;
49460;SDS011;35355;49.198;-0.368;2023-10-13T10:35:58;17.40;;;3.50;;
49460;SDS011;35355;49.198;-0.368;2023-10-13T10:38:25;19.58;;;4.22;;
49460;SDS011;35355;49.198;-0.368;2023-10-13T10:46:13;13.25;;;3.85;;
49460;SDS011;35355;49.198;-0.368;2023-10-13T10:48:44;13.65;;;4.35;;
49460;SDS011;35355;49.198;-0.368;2023-10-13T10:51:11;15.57;;;3.83;;
49460;SDS011;35355;49.198;-0.368;2023-10-13T10:53:50;19.35;;;3.75;;
49460;SDS011;35355;49.198;-0.368;2023-10-13T10:56:18;29.50;;;4.32;;
49460;SDS011;35355;49.198;-0.368;2023-10-13T10:59:07;17.65;;;2.97;;
49460;SDS011;35355;49.198;-0.368;2023-10-13T11:01:43;17.63;;;4.90;;
49460;SDS011;35355;49.198;-0.368;2023-10-13T11:04:13;21.90;;;4.55;;
49460;SDS011;35355;49.198;-0.368;2023-10-13T11:06:49;13.77;;;3.72;;
49460;SDS011;35355;49.198;-0.368;2023-10-13T11:09:26;18.05;;;3.55;;
49460;SDS011;35355;49.198;-0.368;2023-10-13T11:11:56;16.55;;;3.47;;
49460;SDS011;35355;49.198;-0.368;2023-10-13T11:14:23;13.15;;;3.03;;
49460;SDS011;35355;49.198;-0.368;2023-10-13T11:16:59;18.92;;;3.80;;
49460;SDS011;35355;49.198;-0.368;2023-10-13T11:19:34;24.30;;;4.43;;
49460;SDS011;35355;49.198;-0.368;2023-10-13T11:22:17;24.20;;;4.47;;
49460;SDS011;35355;49.198;-0.368;2023-10-13T11:25:10;20.83;;;3.95;;
49460;SDS011;35355;49.198;-0.368;2023-10-13T11:27:39;12.85;;;4.18;;
49460;SDS011;35355;49.198;-0.368;2023-10-13T11:30:15;20.55;;;3.78;;
49460;SDS011;35355;49.198;-0.368;2023-10-13T11:32:45;27.88;;;4.15;;
49460;SDS011;35355;49.198;-0.368;2023-10-13T11:35:21;14.77;;;3.55;;
49460;SDS011;35355;49.198;-0.368;2023-10-13T11:38:13;17.08;;;5.75;;
49460;SDS011;35355;49.198;-0.368;2023-10-13T11:40:50;18.48;;;4.40;;
49460;SDS011;35355;49.198;-0.368;2023-10-13T11:43:36;30.92;;;7.60;;
49460;SDS011;35355;49.198;-0.368;2023-10-13T11:46:29;23.20;;;9.88;;
49460;SDS011;35355;49.198;-0.368;2023-10-13T11:49:04;31.45;;;10.40;;
49460;SDS011;35355;49.198;-0.368;2023-10-13T11:51:48;28.23;;;10.15;;
49460;SDS011;35355;49.198;-0.368;2023-10-13T11:56:40;23.67;;;10.10;;
49460;SDS011;35355;49.198;-0.368;2023-10-13T11:59:07;35.10;;;10.32;;
49460;SDS011;35355;49.198;-0.368;2023-10-13T12:01:42;29.67;;;10.70;;
49460;SDS011;35355;49.198;-0.368;2023-10-13T12:04:30;23.35;;;8.95;;
49460;SDS011;35355;49.198;-0.368;2023-10-13T12:07:14;29.08;;;9.55;;
49460;SDS011;35355;49.198;-0.368;2023-10-13T12:09:40;18.38;;;6.38;;
49460;SDS011;35355;49.198;-0.368;2023-10-13T12:12:19;17.85;;;8.25;;
49460;SDS011;35355;49.198;-0.368;2023-10-13T12:14:50;26.48;;;8.32;;
49460;SDS011;35355;49.198;-0.368;2023-10-13T12:17:21;25.88;;;6.85;;
49460;SDS011;35355;49.198;-0.368;2023-10-13T12:20:03;38.50;;;6.28;;
49460;SDS011;35355;49.198;-0.368;2023-10-13T12:22:37;22.20;;;6.70;;
49460;SDS011;35355;49.198;-0.368;2023-10-13T12:25:07;25.13;;;5.72;;
49460;SDS011;35355;49.198;-0.368;2023-10-13T12:27:52;28.58;;;6.13;;
49460;SDS011;35355;49.198;-0.368;2023-10-13T12:30:37;17.30;;;5.47;;
49460;SDS011;35355;49.198;-0.368;2023-10-13T12:33:21;18.73;;;5.75;;
49460;SDS011;35355;49.198;-0.368;2023-10-13T12:35:59;18.02;;;5.70;;
49460;SDS011;35355;49.198;-0.368;2023-10-13T12:38:37;21.50;;;6.38;;
49460;SDS011;35355;49.198;-0.368;2023-10-13T12:41:15;23.17;;;6.00;;
49460;SDS011;35355;49.198;-0.368;2023-10-13T12:44:00;24.83;;;6.93;;
49460;SDS011;35355;49.198;-0.368;2023-10-13T12:46:44;34.30;;;6.88;;
49460;SDS011;35355;49.198;-0.368;2023-10-13T12:49:28;24.77;;;7.78;;
49460;SDS011;35355;49.198;-0.368;2023-10-13T12:52:05;20.05;;;7.13;;
49460;SDS011;35355;49.198;-0.368;2023-10-13T12:54:44;24.75;;;7.50;;
49460;SDS011;35355;49.198;-0.368;2023-10-13T12:57:33;20.27;;;6.85;;
49460;SDS011;35355;49.198;-0.368;2023-10-13T12:59:59;24.05;;;6.70;;
49460;SDS011;35355;49.198;-0.368;2023-10-13T13:02:26;23.88;;;7.20;;
49460;SDS011;35355;49.198;-0.368;2023-10-13T13:04:55;22.92;;;6.97;;
49460;SDS011;35355;49.198;-0.368;2023-10-13T13:07:27;25.10;;;7.05;;
49460;SDS011;35355;49.198;-0.368;2023-10-13T13:09:56;25.13;;;6.97;;
49460;SDS011;35355;49.198;-0.368;2023-10-13T13:12:25;19.40;;;7.65;;
49460;SDS011;35355;49.198;-0.368;2023-10-13T13:14:53;24.35;;;7.32;;
49460;SDS011;35355;49.198;-0.368;2023-10-13T13:17:22;25.85;;;7.32;;
49460;SDS011;35355;49.198;-0.368;2023-10-13T13:19:48;20.83;;;6.82;;
49460;SDS011;35355;49.198;-0.368;2023-10-13T13:22:13;27.08;;;7.20;;
49460;SDS011;35355;49.198;-0.368;2023-10-13T13:24:45;19.75;;;7.15;;
49460;SDS011;35355;49.198;-0.368;2023-10-13T13:27:15;27.17;;;8.35;;
49460;SDS011;35355;49.198;-0.368;2023-10-13T13:29:47;24.98;;;6.78;;
49460;SDS011;35355;49.198;-0.368;2023-10-13T13:32:13;20.85;;;6.15;;
49460;SDS011;35355;49.198;-0.368;2023-10-13T13:34:49;22.67;;;7.20;;
49460;SDS011;35355;49.198;-0.368;2023-10-13T13:37:33;21.13;;;6.22;;
49460;SDS011;35355;49.198;-0.368;2023-10-13T13:40:00;21.63;;;6.90;;
49460;SDS011;35355;49.198;-0.368;2023-10-13T13:42:49;29.77;;;6.47;;
49460;SDS011;35355;49.198;-0.368;2023-10-13T13:45:17;27.75;;;5.80;;
49460;SDS011;35355;49.198;-0.368;2023-10-13T13:47:48;22.17;;;6.88;;
49460;SDS011;35355;49.198;-0.368;2023-10-13T13:50:27;15.68;;;5.50;;
49460;SDS011;35355;49.198;-0.368;2023-10-13T13:53:00;30.13;;;6.57;;
49460;SDS011;35355;49.198;-0.368;2023-10-13T13:55:26;18.67;;;6.95;;
49460;SDS011;35355;49.198;-0.368;2023-10-13T13:57:56;34.47;;;7.85;;
49460;SDS011;35355;49.198;-0.368;2023-10-13T14:00:22;26.42;;;7.60;;
49460;SDS011;35355;49.198;-0.368;2023-10-13T14:03:07;20.83;;;6.88;;
49460;SDS011;35355;49.198;-0.368;2023-10-13T14:05:52;27.02;;;8.48;;
49460;SDS011;35355;49.198;-0.368;2023-10-13T14:08:20;28.58;;;8.93;;
49460;SDS011;35355;49.198;-0.368;2023-10-13T14:10:47;19.55;;;7.25;;
49460;SDS011;35355;49.198;-0.368;2023-10-13T14:13:30;18.35;;;7.25;;
49460;SDS011;35355;49.198;-0.368;2023-10-13T14:16:35;21.98;;;7.78;;
49460;SDS011;35355;49.198;-0.368;2023-10-13T14:19:02;18.50;;;7.75;;
49460;SDS011;35355;49.198;-0.368;2023-10-13T14:21:32;24.20;;;7.97;;
49460;SDS011;35355;49.198;-0.368;2023-10-13T14:24:00;19.58;;;8.07;;
49460;SDS011;35355;49.198;-0.368;2023-10-13T14:26:27;17.65;;;7.32;;
49460;SDS011;35355;49.198;-0.368;2023-10-13T14:28:53;20.10;;;7.90;;
49460;SDS011;35355;49.198;-0.368;2023-10-13T14:31:33;24.00;;;7.82;;
49460;SDS011;35355;49.198;-0.368;2023-10-13T14:34:02;15.13;;;7.43;;
49460;SDS011;35355;49.198;-0.368;2023-10-13T14:36:27;24.85;;;8.48;;
49460;SDS011;35355;49.198;-0.368;2023-10-13T14:39:00;25.00;;;8.88;;
49460;SDS011;35355;49.198;-0.368;2023-10-13T14:41:28;32.20;;;9.25;;
49460;SDS011;35355;49.198;-0.368;2023-10-13T14:43:54;17.92;;;7.65;;
49460;SDS011;35355;49.198;-0.368;2023-10-13T14:46:29;29.10;;;9.65;;
49460;SDS011;35355;49.198;-0.368;2023-10-13T14:48:55;23.05;;;9.35;;
49460;SDS011;35355;49.198;-0.368;2023-10-13T14:51:24;26.35;;;9.13;;
49460;SDS011;35355;49.198;-0.368;2023-10-13T14:53:50;28.17;;;9.50;;
49460;SDS011;35355;49.198;-0.368;2023-10-13T14:56:21;24.85;;;9.40;;
49460;SDS011;35355;49.198;-0.368;2023-10-13T14:58:50;25.20;;;9.82;;
49460;SDS011;35355;49.198;-0.368;2023-10-13T15:01:22;26.73;;;8.40;;
49460;SDS011;35355;49.198;-0.368;2023-10-13T15:03:54;25.98;;;8.90;;
49460;SDS011;35355;49.198;-0.368;2023-10-13T15:06:21;23.17;;;8.00;;
49460;SDS011;35355;49.198;-0.368;2023-10-13T15:08:54;21.48;;;7.97;;
49460;SDS011;35355;49.198;-0.368;2023-10-13T15:11:26;16.67;;;8.20;;
49460;SDS011;35355;49.198;-0.368;2023-10-13T15:14:01;21.77;;;7.97;;
49460;SDS011;35355;49.198;-0.368;2023-10-13T15:16:38;25.80;;;8.40;;
49460;SDS011;35355;49.198;-0.368;2023-10-13T15:19:04;20.38;;;7.63;;
49460;SDS011;35355;49.198;-0.368;2023-10-13T15:21:31;24.13;;;9.20;;